sensor_id;sensor_type;location;lat;lon;timestamp;pressure;altitude;pressure_sealevel;temperature
11424;BMP180;5768;51.476;7.210;2023-04-09T00:03:32;101205.00;;;10.90
11424;BMP180;5768;51.476;7.210;2023-04-09T00:08:34;101206.00;;;10.80
11424;BMP180;5768;51.476;7.210;2023-04-09T00:13:36;101195.00;;;10.70
11424;BMP180;5768;51.476;7.210;2023-04-09T00:18:40;101197.00;;;10.60
11424;BMP180;5768;51.476;7.210;2023-04-09T00:23:42;101193.00;;;10.60
11424;BMP180;5768;51.476;7.210;2023-04-09T00:28:45;101186.00;;;10.50
11424;BMP180;5768;51.476;7.210;2023-04-09T00:33:48;101177.00;;;10.40
11424;BMP180;5768;51.476;7.210;2023-04-09T00:38:51;101184.00;;;10.40
11424;BMP180;5768;51.476;7.210;2023-04-09T00:43:55;101182.00;;;10.30
11424;BMP180;5768;51.476;7.210;2023-04-09T00:48:59;101177.00;;;10.20
11424;BMP180;5768;51.476;7.210;2023-04-09T00:54:01;101181.00;;;10.20
11424;BMP180;5768;51.476;7.210;2023-04-09T00:59:03;101182.00;;;10.10
11424;BMP180;5768;51.476;7.210;2023-04-09T01:04:07;101182.00;;;10.00
11424;BMP180;5768;51.476;7.210;2023-04-09T01:09:19;101190.00;;;10.00
11424;BMP180;5768;51.476;7.210;2023-04-09T01:14:31;101181.00;;;9.90
11424;BMP180;5768;51.476;7.210;2023-04-09T01:19:50;101177.00;;;9.90
11424;BMP180;5768;51.476;7.210;2023-04-09T01:25:06;101179.00;;;9.80
11424;BMP180;5768;51.476;7.210;2023-04-09T01:30:13;101164.00;;;9.70
11424;BMP180;5768;51.476;7.210;2023-04-09T01:35:18;101150.00;;;9.70
11424;BMP180;5768;51.476;7.210;2023-04-09T01:40:21;101174.00;;;9.70
11424;BMP180;5768;51.476;7.210;2023-04-09T01:45:25;101173.00;;;9.60
11424;BMP180;5768;51.476;7.210;2023-04-09T01:50:28;101168.00;;;9.60
11424;BMP180;5768;51.476;7.210;2023-04-09T01:55:31;101174.00;;;9.60
11424;BMP180;5768;51.476;7.210;2023-04-09T02:00:39;101171.00;;;9.50
11424;BMP180;5768;51.476;7.210;2023-04-09T02:05:51;101167.00;;;9.40
11424;BMP180;5768;51.476;7.210;2023-04-09T02:10:57;101167.00;;;9.30
11424;BMP180;5768;51.476;7.210;2023-04-09T02:16:03;101162.00;;;9.20
11424;BMP180;5768;51.476;7.210;2023-04-09T02:21:06;101166.00;;;9.20
11424;BMP180;5768;51.476;7.210;2023-04-09T02:26:08;101163.00;;;9.10
11424;BMP180;5768;51.476;7.210;2023-04-09T02:31:13;101164.00;;;9.00
11424;BMP180;5768;51.476;7.210;2023-04-09T02:36:15;101162.00;;;9.00
11424;BMP180;5768;51.476;7.210;2023-04-09T02:41:18;101156.00;;;8.90
11424;BMP180;5768;51.476;7.210;2023-04-09T02:46:22;101144.00;;;8.80
11424;BMP180;5768;51.476;7.210;2023-04-09T02:51:24;101144.00;;;8.80
11424;BMP180;5768;51.476;7.210;2023-04-09T02:56:27;101128.00;;;8.70
11424;BMP180;5768;51.476;7.210;2023-04-09T03:01:31;101134.00;;;8.60
11424;BMP180;5768;51.476;7.210;2023-04-09T03:06:33;101119.00;;;8.50
11424;BMP180;5768;51.476;7.210;2023-04-09T03:11:35;101121.00;;;8.50
11424;BMP180;5768;51.476;7.210;2023-04-09T03:16:39;101118.00;;;8.40
11424;BMP180;5768;51.476;7.210;2023-04-09T03:21:42;101119.00;;;8.40
11424;BMP180;5768;51.476;7.210;2023-04-09T03:26:44;101118.00;;;8.40
11424;BMP180;5768;51.476;7.210;2023-04-09T03:31:48;101116.00;;;8.40
11424;BMP180;5768;51.476;7.210;2023-04-09T03:36:50;101108.00;;;8.40
11424;BMP180;5768;51.476;7.210;2023-04-09T03:41:52;101107.00;;;8.30
11424;BMP180;5768;51.476;7.210;2023-04-09T03:46:56;101104.00;;;8.20
11424;BMP180;5768;51.476;7.210;2023-04-09T03:51:58;101103.00;;;8.20
11424;BMP180;5768;51.476;7.210;2023-04-09T03:57:00;101100.00;;;8.10
11424;BMP180;5768;51.476;7.210;2023-04-09T04:02:05;101109.00;;;8.10
11424;BMP180;5768;51.476;7.210;2023-04-09T04:07:07;101106.00;;;8.00
11424;BMP180;5768;51.476;7.210;2023-04-09T04:12:09;101113.00;;;8.00
11424;BMP180;5768;51.476;7.210;2023-04-09T04:17:13;101108.00;;;8.00
11424;BMP180;5768;51.476;7.210;2023-04-09T04:22:15;101112.00;;;8.10
11424;BMP180;5768;51.476;7.210;2023-04-09T04:27:17;101125.00;;;8.10
11424;BMP180;5768;51.476;7.210;2023-04-09T04:32:21;101119.00;;;8.10
11424;BMP180;5768;51.476;7.210;2023-04-09T04:37:24;101116.00;;;8.10
11424;BMP180;5768;51.476;7.210;2023-04-09T04:42:26;101113.00;;;8.10
11424;BMP180;5768;51.476;7.210;2023-04-09T04:47:31;101121.00;;;8.20
11424;BMP180;5768;51.476;7.210;2023-04-09T04:52:33;101112.00;;;8.20
11424;BMP180;5768;51.476;7.210;2023-04-09T04:57:35;101115.00;;;8.20
11424;BMP180;5768;51.476;7.210;2023-04-09T05:02:39;101117.00;;;8.10
11424;BMP180;5768;51.476;7.210;2023-04-09T05:07:41;101110.00;;;7.90
11424;BMP180;5768;51.476;7.210;2023-04-09T05:12:43;101115.00;;;7.90
11424;BMP180;5768;51.476;7.210;2023-04-09T05:17:47;101117.00;;;7.90
11424;BMP180;5768;51.476;7.210;2023-04-09T05:22:49;101126.00;;;7.90
11424;BMP180;5768;51.476;7.210;2023-04-09T05:27:52;101118.00;;;7.90
11424;BMP180;5768;51.476;7.210;2023-04-09T05:32:55;101117.00;;;7.90
11424;BMP180;5768;51.476;7.210;2023-04-09T05:37:57;101120.00;;;8.00
11424;BMP180;5768;51.476;7.210;2023-04-09T05:43:00;101127.00;;;8.00
11424;BMP180;5768;51.476;7.210;2023-04-09T05:48:04;101130.00;;;8.10
11424;BMP180;5768;51.476;7.210;2023-04-09T05:53:06;101125.00;;;8.20
11424;BMP180;5768;51.476;7.210;2023-04-09T05:58:09;101124.00;;;8.30
11424;BMP180;5768;51.476;7.210;2023-04-09T06:03:12;101127.00;;;8.40
11424;BMP180;5768;51.476;7.210;2023-04-09T06:08:15;101116.00;;;8.50
11424;BMP180;5768;51.476;7.210;2023-04-09T06:13:17;101127.00;;;8.60
11424;BMP180;5768;51.476;7.210;2023-04-09T06:18:21;101123.00;;;8.80
11424;BMP180;5768;51.476;7.210;2023-04-09T06:23:23;101128.00;;;8.90
11424;BMP180;5768;51.476;7.210;2023-04-09T06:28:26;101131.00;;;9.00
11424;BMP180;5768;51.476;7.210;2023-04-09T06:33:31;101124.00;;;9.10
11424;BMP180;5768;51.476;7.210;2023-04-09T06:38:33;101128.00;;;9.20
11424;BMP180;5768;51.476;7.210;2023-04-09T06:43:35;101144.00;;;9.30
11424;BMP180;5768;51.476;7.210;2023-04-09T06:48:39;101145.00;;;9.50
11424;BMP180;5768;51.476;7.210;2023-04-09T06:53:42;101147.00;;;9.60
11424;BMP180;5768;51.476;7.210;2023-04-09T06:58:44;101141.00;;;9.80
11424;BMP180;5768;51.476;7.210;2023-04-09T07:03:48;101144.00;;;9.90
11424;BMP180;5768;51.476;7.210;2023-04-09T07:08:51;101144.00;;;10.10
11424;BMP180;5768;51.476;7.210;2023-04-09T07:13:53;101148.00;;;10.40
11424;BMP180;5768;51.476;7.210;2023-04-09T07:18:58;101168.00;;;10.60
11424;BMP180;5768;51.476;7.210;2023-04-09T07:24:00;101165.00;;;10.70
11424;BMP180;5768;51.476;7.210;2023-04-09T07:29:02;101171.00;;;10.90
11424;BMP180;5768;51.476;7.210;2023-04-09T07:34:06;101168.00;;;11.10
11424;BMP180;5768;51.476;7.210;2023-04-09T07:39:08;101164.00;;;11.40
11424;BMP180;5768;51.476;7.210;2023-04-09T07:44:10;101173.00;;;11.60
11424;BMP180;5768;51.476;7.210;2023-04-09T07:49:14;101167.00;;;11.80
11424;BMP180;5768;51.476;7.210;2023-04-09T07:54:17;101168.00;;;12.00
11424;BMP180;5768;51.476;7.210;2023-04-09T07:59:21;101166.00;;;12.30
11424;BMP180;5768;51.476;7.210;2023-04-09T08:04:25;101163.00;;;12.50
11424;BMP180;5768;51.476;7.210;2023-04-09T08:09:27;101164.00;;;12.80
11424;BMP180;5768;51.476;7.210;2023-04-09T08:14:31;101174.00;;;13.00
11424;BMP180;5768;51.476;7.210;2023-04-09T08:19:35;101170.00;;;13.20
11424;BMP180;5768;51.476;7.210;2023-04-09T08:24:41;101179.00;;;13.50
11424;BMP180;5768;51.476;7.210;2023-04-09T08:29:43;101169.00;;;13.70
11424;BMP180;5768;51.476;7.210;2023-04-09T08:34:47;101167.00;;;13.90
11424;BMP180;5768;51.476;7.210;2023-04-09T08:39:50;101179.00;;;14.10
11424;BMP180;5768;51.476;7.210;2023-04-09T08:44:52;101175.00;;;14.20
11424;BMP180;5768;51.476;7.210;2023-04-09T08:49:56;101172.00;;;14.40
11424;BMP180;5768;51.476;7.210;2023-04-09T08:54:58;101174.00;;;14.60
11424;BMP180;5768;51.476;7.210;2023-04-09T09:00:01;101163.00;;;14.80
11424;BMP180;5768;51.476;7.210;2023-04-09T09:05:06;101169.00;;;15.00
11424;BMP180;5768;51.476;7.210;2023-04-09T09:10:08;101170.00;;;15.20
11424;BMP180;5768;51.476;7.210;2023-04-09T09:15:25;101176.00;;;15.50
11424;BMP180;5768;51.476;7.210;2023-04-09T09:20:29;101173.00;;;16.20
11424;BMP180;5768;51.476;7.210;2023-04-09T09:25:37;101169.00;;;16.90
11424;BMP180;5768;51.476;7.210;2023-04-09T09:30:39;101180.00;;;17.30
11424;BMP180;5768;51.476;7.210;2023-04-09T09:35:51;101168.00;;;17.10
11424;BMP180;5768;51.476;7.210;2023-04-09T09:40:54;101160.00;;;17.00
11424;BMP180;5768;51.476;7.210;2023-04-09T09:45:57;101157.00;;;17.00
11424;BMP180;5768;51.476;7.210;2023-04-09T09:51:07;101151.00;;;17.00
11424;BMP180;5768;51.476;7.210;2023-04-09T09:56:14;101145.00;;;16.90
11424;BMP180;5768;51.476;7.210;2023-04-09T10:01:20;101142.00;;;16.90
11424;BMP180;5768;51.476;7.210;2023-04-09T10:06:26;101142.00;;;17.30
11424;BMP180;5768;51.476;7.210;2023-04-09T10:11:31;101142.00;;;17.50
11424;BMP180;5768;51.476;7.210;2023-04-09T10:16:34;101141.00;;;17.70
11424;BMP180;5768;51.476;7.210;2023-04-09T10:21:46;101142.00;;;17.90
11424;BMP180;5768;51.476;7.210;2023-04-09T10:26:54;101131.00;;;18.20
11424;BMP180;5768;51.476;7.210;2023-04-09T10:32:04;101126.00;;;18.60
11424;BMP180;5768;51.476;7.210;2023-04-09T10:37:13;101124.00;;;18.70
11424;BMP180;5768;51.476;7.210;2023-04-09T10:42:19;101115.00;;;18.60
11424;BMP180;5768;51.476;7.210;2023-04-09T10:47:32;101114.00;;;18.80
11424;BMP180;5768;51.476;7.210;2023-04-09T10:52:40;101128.00;;;19.20
11424;BMP180;5768;51.476;7.210;2023-04-09T10:57:42;101127.00;;;19.30
11424;BMP180;5768;51.476;7.210;2023-04-09T11:03:18;101130.00;;;19.30
11424;BMP180;5768;51.476;7.210;2023-04-09T11:08:27;101114.00;;;19.30
11424;BMP180;5768;51.476;7.210;2023-04-09T11:13:31;101111.00;;;19.80
11424;BMP180;5768;51.476;7.210;2023-04-09T11:18:34;101118.00;;;20.20
11424;BMP180;5768;51.476;7.210;2023-04-09T11:23:38;101109.00;;;20.30
11424;BMP180;5768;51.476;7.210;2023-04-09T11:28:42;101109.00;;;20.20
11424;BMP180;5768;51.476;7.210;2023-04-09T11:33:45;101102.00;;;20.00
11424;BMP180;5768;51.476;7.210;2023-04-09T11:38:49;101099.00;;;20.40
11424;BMP180;5768;51.476;7.210;2023-04-09T11:43:51;101091.00;;;20.60
11424;BMP180;5768;51.476;7.210;2023-04-09T11:48:55;101103.00;;;20.70
11424;BMP180;5768;51.476;7.210;2023-04-09T11:54:03;101086.00;;;20.60
11424;BMP180;5768;51.476;7.210;2023-04-09T11:59:06;101085.00;;;21.00
11424;BMP180;5768;51.476;7.210;2023-04-09T12:04:08;101091.00;;;21.70
11424;BMP180;5768;51.476;7.210;2023-04-09T12:09:12;101088.00;;;22.00
11424;BMP180;5768;51.476;7.210;2023-04-09T12:14:16;101103.00;;;22.00
11424;BMP180;5768;51.476;7.210;2023-04-09T12:19:28;101092.00;;;21.50
11424;BMP180;5768;51.476;7.210;2023-04-09T12:24:32;101080.00;;;21.30
11424;BMP180;5768;51.476;7.210;2023-04-09T12:29:34;101087.00;;;21.40
11424;BMP180;5768;51.476;7.210;2023-04-09T12:34:40;101088.00;;;22.30
11424;BMP180;5768;51.476;7.210;2023-04-09T12:39:48;101085.00;;;22.70
11424;BMP180;5768;51.476;7.210;2023-04-09T12:44:51;101094.00;;;24.30
11424;BMP180;5768;51.476;7.210;2023-04-09T12:49:53;101084.00;;;24.60
11424;BMP180;5768;51.476;7.210;2023-04-09T12:54:57;101088.00;;;26.00
11424;BMP180;5768;51.476;7.210;2023-04-09T12:59:59;101089.00;;;26.50
11424;BMP180;5768;51.476;7.210;2023-04-09T13:05:02;101091.00;;;25.90
11424;BMP180;5768;51.476;7.210;2023-04-09T13:10:07;101087.00;;;25.30
11424;BMP180;5768;51.476;7.210;2023-04-09T13:15:10;101083.00;;;26.40
11424;BMP180;5768;51.476;7.210;2023-04-09T13:20:13;101083.00;;;25.50
11424;BMP180;5768;51.476;7.210;2023-04-09T13:25:17;101085.00;;;24.80
11424;BMP180;5768;51.476;7.210;2023-04-09T13:30:21;101069.00;;;24.40
11424;BMP180;5768;51.476;7.210;2023-04-09T13:35:23;101057.00;;;24.50
11424;BMP180;5768;51.476;7.210;2023-04-09T13:40:27;101068.00;;;27.70
11424;BMP180;5768;51.476;7.210;2023-04-09T13:45:29;101082.00;;;28.30
11424;BMP180;5768;51.476;7.210;2023-04-09T13:50:32;101073.00;;;27.80
11424;BMP180;5768;51.476;7.210;2023-04-09T13:55:35;101069.00;;;27.60
11424;BMP180;5768;51.476;7.210;2023-04-09T14:00:38;101064.00;;;29.30
11424;BMP180;5768;51.476;7.210;2023-04-09T14:05:40;101070.00;;;31.10
11424;BMP180;5768;51.476;7.210;2023-04-09T14:10:44;101080.00;;;33.00
11424;BMP180;5768;51.476;7.210;2023-04-09T14:15:46;101064.00;;;31.10
11424;BMP180;5768;51.476;7.210;2023-04-09T14:20:49;101058.00;;;28.80
11424;BMP180;5768;51.476;7.210;2023-04-09T14:25:53;101045.00;;;27.20
11424;BMP180;5768;51.476;7.210;2023-04-09T14:30:55;101041.00;;;26.60
11424;BMP180;5768;51.476;7.210;2023-04-09T14:35:57;101033.00;;;28.60
11424;BMP180;5768;51.476;7.210;2023-04-09T14:41:01;101039.00;;;31.90
11424;BMP180;5768;51.476;7.210;2023-04-09T14:46:04;101037.00;;;35.60
11424;BMP180;5768;51.476;7.210;2023-04-09T14:51:11;101034.00;;;37.10
11424;BMP180;5768;51.476;7.210;2023-04-09T14:56:15;101036.00;;;38.80
11424;BMP180;5768;51.476;7.210;2023-04-09T15:01:17;101033.00;;;40.10
11424;BMP180;5768;51.476;7.210;2023-04-09T15:06:19;101039.00;;;40.90
11424;BMP180;5768;51.476;7.210;2023-04-09T15:11:23;101040.00;;;41.50
11424;BMP180;5768;51.476;7.210;2023-04-09T15:16:27;101038.00;;;41.80
11424;BMP180;5768;51.476;7.210;2023-04-09T15:21:31;101035.00;;;41.80
11424;BMP180;5768;51.476;7.210;2023-04-09T15:26:35;101028.00;;;40.50
11424;BMP180;5768;51.476;7.210;2023-04-09T15:31:37;101037.00;;;40.30
11424;BMP180;5768;51.476;7.210;2023-04-09T15:36:39;101042.00;;;41.40
11424;BMP180;5768;51.476;7.210;2023-04-09T15:41:43;101031.00;;;42.00
11424;BMP180;5768;51.476;7.210;2023-04-09T15:46:45;101025.00;;;41.90
11424;BMP180;5768;51.476;7.210;2023-04-09T15:51:48;101023.00;;;42.00
11424;BMP180;5768;51.476;7.210;2023-04-09T15:56:51;101026.00;;;42.20
11424;BMP180;5768;51.476;7.210;2023-04-09T16:01:54;101028.00;;;41.10
11424;BMP180;5768;51.476;7.210;2023-04-09T16:06:56;101016.00;;;36.40
11424;BMP180;5768;51.476;7.210;2023-04-09T16:11:59;101006.00;;;33.70
11424;BMP180;5768;51.476;7.210;2023-04-09T16:17:02;101011.00;;;31.30
11424;BMP180;5768;51.476;7.210;2023-04-09T16:22:07;101012.00;;;29.50
11424;BMP180;5768;51.476;7.210;2023-04-09T16:27:11;101011.00;;;28.40
11424;BMP180;5768;51.476;7.210;2023-04-09T16:32:14;101005.00;;;27.70
11424;BMP180;5768;51.476;7.210;2023-04-09T16:37:16;101007.00;;;26.80
11424;BMP180;5768;51.476;7.210;2023-04-09T16:42:20;100993.00;;;26.00
11424;BMP180;5768;51.476;7.210;2023-04-09T16:47:22;100990.00;;;25.60
11424;BMP180;5768;51.476;7.210;2023-04-09T16:52:24;100974.00;;;28.50
11424;BMP180;5768;51.476;7.210;2023-04-09T16:57:52;100968.00;;;29.50
11424;BMP180;5768;51.476;7.210;2023-04-09T17:02:55;100964.00;;;28.90
11424;BMP180;5768;51.476;7.210;2023-04-09T17:07:57;100971.00;;;27.90
11424;BMP180;5768;51.476;7.210;2023-04-09T17:13:01;100962.00;;;28.20
11424;BMP180;5768;51.476;7.210;2023-04-09T17:18:03;100949.00;;;27.60
11424;BMP180;5768;51.476;7.210;2023-04-09T17:23:06;100961.00;;;27.20
11424;BMP180;5768;51.476;7.210;2023-04-09T17:28:10;100963.00;;;26.20
11424;BMP180;5768;51.476;7.210;2023-04-09T17:33:12;100956.00;;;24.90
11424;BMP180;5768;51.476;7.210;2023-04-09T17:38:14;100969.00;;;24.10
11424;BMP180;5768;51.476;7.210;2023-04-09T17:43:22;100975.00;;;23.60
11424;BMP180;5768;51.476;7.210;2023-04-09T17:48:24;100960.00;;;23.30
11424;BMP180;5768;51.476;7.210;2023-04-09T17:53:26;100970.00;;;22.60
11424;BMP180;5768;51.476;7.210;2023-04-09T17:58:30;100970.00;;;22.20
11424;BMP180;5768;51.476;7.210;2023-04-09T18:03:32;100965.00;;;21.50
11424;BMP180;5768;51.476;7.210;2023-04-09T18:08:35;100967.00;;;20.60
11424;BMP180;5768;51.476;7.210;2023-04-09T18:13:38;100972.00;;;20.00
11424;BMP180;5768;51.476;7.210;2023-04-09T18:18:41;100967.00;;;19.40
11424;BMP180;5768;51.476;7.210;2023-04-09T18:23:43;100968.00;;;18.90
11424;BMP180;5768;51.476;7.210;2023-04-09T18:28:46;100979.00;;;18.50
11424;BMP180;5768;51.476;7.210;2023-04-09T18:33:48;100978.00;;;18.10
11424;BMP180;5768;51.476;7.210;2023-04-09T18:38:51;100972.00;;;17.70
11424;BMP180;5768;51.476;7.210;2023-04-09T18:43:55;100972.00;;;17.50
11424;BMP180;5768;51.476;7.210;2023-04-09T18:48:57;100971.00;;;17.20
11424;BMP180;5768;51.476;7.210;2023-04-09T18:54:00;100968.00;;;16.90
11424;BMP180;5768;51.476;7.210;2023-04-09T18:59:03;100969.00;;;16.70
11424;BMP180;5768;51.476;7.210;2023-04-09T19:04:06;100971.00;;;16.50
11424;BMP180;5768;51.476;7.210;2023-04-09T19:09:08;100962.00;;;16.30
11424;BMP180;5768;51.476;7.210;2023-04-09T19:14:12;100970.00;;;16.10
11424;BMP180;5768;51.476;7.210;2023-04-09T19:19:14;100966.00;;;16.00
11424;BMP180;5768;51.476;7.210;2023-04-09T19:24:16;100968.00;;;15.80
11424;BMP180;5768;51.476;7.210;2023-04-09T19:29:20;100977.00;;;15.60
11424;BMP180;5768;51.476;7.210;2023-04-09T19:34:22;100973.00;;;15.50
11424;BMP180;5768;51.476;7.210;2023-04-09T19:39:25;100962.00;;;15.40
11424;BMP180;5768;51.476;7.210;2023-04-09T19:44:28;100965.00;;;15.20
11424;BMP180;5768;51.476;7.210;2023-04-09T19:49:31;100965.00;;;15.10
11424;BMP180;5768;51.476;7.210;2023-04-09T19:54:34;100960.00;;;15.00
11424;BMP180;5768;51.476;7.210;2023-04-09T19:59:44;100975.00;;;14.90
11424;BMP180;5768;51.476;7.210;2023-04-09T20:04:46;100958.00;;;14.70
11424;BMP180;5768;51.476;7.210;2023-04-09T20:09:48;100963.00;;;14.50
11424;BMP180;5768;51.476;7.210;2023-04-09T20:14:52;100957.00;;;14.40
11424;BMP180;5768;51.476;7.210;2023-04-09T20:19:55;100967.00;;;14.30
11424;BMP180;5768;51.476;7.210;2023-04-09T20:25:06;100958.00;;;14.20
11424;BMP180;5768;51.476;7.210;2023-04-09T20:30:10;100958.00;;;14.10
11424;BMP180;5768;51.476;7.210;2023-04-09T20:35:13;100951.00;;;14.00
11424;BMP180;5768;51.476;7.210;2023-04-09T20:40:18;100936.00;;;13.90
11424;BMP180;5768;51.476;7.210;2023-04-09T20:45:22;100942.00;;;13.80
11424;BMP180;5768;51.476;7.210;2023-04-09T20:50:24;100941.00;;;13.80
11424;BMP180;5768;51.476;7.210;2023-04-09T20:55:26;100932.00;;;13.70
11424;BMP180;5768;51.476;7.210;2023-04-09T21:00:30;100931.00;;;13.60
11424;BMP180;5768;51.476;7.210;2023-04-09T21:05:32;100941.00;;;13.50
11424;BMP180;5768;51.476;7.210;2023-04-09T21:10:34;100921.00;;;13.50
11424;BMP180;5768;51.476;7.210;2023-04-09T21:15:38;100922.00;;;13.40
11424;BMP180;5768;51.476;7.210;2023-04-09T21:20:42;100922.00;;;13.30
11424;BMP180;5768;51.476;7.210;2023-04-09T21:25:45;100913.00;;;13.20
11424;BMP180;5768;51.476;7.210;2023-04-09T21:30:49;100912.00;;;13.20
11424;BMP180;5768;51.476;7.210;2023-04-09T21:35:52;100914.00;;;13.10
11424;BMP180;5768;51.476;7.210;2023-04-09T21:41:00;100908.00;;;13.00
11424;BMP180;5768;51.476;7.210;2023-04-09T21:46:04;100910.00;;;12.90
11424;BMP180;5768;51.476;7.210;2023-04-09T21:51:08;100910.00;;;12.90
11424;BMP180;5768;51.476;7.210;2023-04-09T21:56:11;100914.00;;;12.80
11424;BMP180;5768;51.476;7.210;2023-04-09T22:01:14;100903.00;;;12.70
11424;BMP180;5768;51.476;7.210;2023-04-09T22:06:17;100904.00;;;12.70
11424;BMP180;5768;51.476;7.210;2023-04-09T22:11:23;100902.00;;;12.60
11424;BMP180;5768;51.476;7.210;2023-04-09T22:16:27;100894.00;;;12.60
11424;BMP180;5768;51.476;7.210;2023-04-09T22:21:31;100897.00;;;12.60
11424;BMP180;5768;51.476;7.210;2023-04-09T22:26:34;100890.00;;;12.50
11424;BMP180;5768;51.476;7.210;2023-04-09T22:31:37;100890.00;;;12.50
11424;BMP180;5768;51.476;7.210;2023-04-09T22:36:40;100904.00;;;12.40
11424;BMP180;5768;51.476;7.210;2023-04-09T22:41:42;100907.00;;;12.40
11424;BMP180;5768;51.476;7.210;2023-04-09T22:46:46;100916.00;;;12.40
11424;BMP180;5768;51.476;7.210;2023-04-09T22:51:48;100934.00;;;12.40
11424;BMP180;5768;51.476;7.210;2023-04-09T22:56:51;100931.00;;;12.40
11424;BMP180;5768;51.476;7.210;2023-04-09T23:01:54;100928.00;;;12.30
11424;BMP180;5768;51.476;7.210;2023-04-09T23:06:56;100933.00;;;12.30
11424;BMP180;5768;51.476;7.210;2023-04-09T23:11:59;100936.00;;;12.30
11424;BMP180;5768;51.476;7.210;2023-04-09T23:17:03;100929.00;;;12.30
11424;BMP180;5768;51.476;7.210;2023-04-09T23:22:06;100932.00;;;12.30
11424;BMP180;5768;51.476;7.210;2023-04-09T23:27:08;100925.00;;;12.30
11424;BMP180;5768;51.476;7.210;2023-04-09T23:32:12;100920.00;;;12.30
11424;BMP180;5768;51.476;7.210;2023-04-09T23:37:14;100913.00;;;12.30
11424;BMP180;5768;51.476;7.210;2023-04-09T23:42:17;100911.00;;;12.30
11424;BMP180;5768;51.476;7.210;2023-04-09T23:47:20;100906.00;;;12.20
11424;BMP180;5768;51.476;7.210;2023-04-09T23:52:25;100905.00;;;12.20
11424;BMP180;5768;51.476;7.210;2023-04-09T23:57:27;100904.00;;;12.10
